createdAt,value
2018-07-08T00:01:05.465Z,4.10
2018-07-08T00:03:33.524Z,4.30
2018-07-08T00:06:01.596Z,4.10
2018-07-08T00:08:29.440Z,4.30
2018-07-08T00:10:58.836Z,4.10
2018-07-08T00:13:26.980Z,3.67
2018-07-08T00:15:55.060Z,3.72
2018-07-08T00:18:24.001Z,3.80
2018-07-08T00:20:53.221Z,4.30
2018-07-08T00:23:21.916Z,4.35
2018-07-08T00:25:50.006Z,3.95
2018-07-08T00:28:18.293Z,4.30
2018-07-08T00:30:46.465Z,3.45
2018-07-08T00:33:14.507Z,4.35
2018-07-08T00:35:42.554Z,3.98
2018-07-08T00:38:10.596Z,3.92
2018-07-08T00:40:38.637Z,4.08
2018-07-08T00:43:06.676Z,4.50
2018-07-08T00:45:34.734Z,4.08
2018-07-08T00:48:02.765Z,3.80
2018-07-08T00:50:30.813Z,3.83
2018-07-08T00:52:58.848Z,4.03
2018-07-08T00:55:26.888Z,4.00
2018-07-08T00:57:54.936Z,4.22
2018-07-08T01:00:30.141Z,4.22
2018-07-08T01:02:58.180Z,3.95
2018-07-08T01:05:26.428Z,4.33
2018-07-08T01:07:54.472Z,4.42
2018-07-08T01:10:22.535Z,4.53
2018-07-08T01:12:50.636Z,4.47
2018-07-08T01:15:18.492Z,4.00
2018-07-08T01:17:46.550Z,4.50
2018-07-08T01:20:14.624Z,4.45
2018-07-08T01:22:42.677Z,4.15
2018-07-08T01:25:12.952Z,4.50
2018-07-08T01:27:41.138Z,4.53
2018-07-08T01:30:10.048Z,3.83
2018-07-08T01:32:38.106Z,3.95
2018-07-08T01:35:06.168Z,3.62
2018-07-08T01:37:34.228Z,3.87
2018-07-08T01:40:02.293Z,4.05
2018-07-08T01:42:31.176Z,4.17
2018-07-08T01:44:59.832Z,4.17
2018-07-08T01:47:27.884Z,4.62
2018-07-08T01:49:55.940Z,4.67
2018-07-08T01:52:25.268Z,4.20
2018-07-08T01:54:53.650Z,4.28
2018-07-08T01:57:21.822Z,3.87
2018-07-08T01:59:50.625Z,4.20
2018-07-08T02:02:18.828Z,4.03
2018-07-08T02:04:47.264Z,4.53
2018-07-08T02:07:15.816Z,4.25
2018-07-08T02:09:43.883Z,4.20
2018-07-08T02:12:11.933Z,3.85
2018-07-08T02:14:39.969Z,3.87
2018-07-08T02:17:08.008Z,4.33
2018-07-08T02:19:36.081Z,5.20
2018-07-08T02:22:04.128Z,3.72
2018-07-08T02:24:32.190Z,4.20
2018-07-08T02:27:00.244Z,3.80
2018-07-08T02:29:28.288Z,4.25
2018-07-08T02:31:56.356Z,4.80
2018-07-08T02:34:24.793Z,4.17
2018-07-08T02:36:52.837Z,4.05
2018-07-08T02:39:20.872Z,4.55
2018-07-08T02:41:48.961Z,4.40
2018-07-08T02:44:17.004Z,4.20
2018-07-08T02:46:45.146Z,3.90
2018-07-08T02:49:13.332Z,4.00
2018-07-08T02:51:41.384Z,3.65
2018-07-08T02:54:09.425Z,4.20
2018-07-08T02:56:37.473Z,4.08
2018-07-08T02:59:05.520Z,4.17
2018-07-08T03:01:33.565Z,4.80
2018-07-08T03:04:01.598Z,4.03
2018-07-08T03:06:29.636Z,4.37
2018-07-08T03:08:57.676Z,4.85
2018-07-08T03:11:25.741Z,5.05
2018-07-08T03:13:53.824Z,4.95
2018-07-08T03:16:21.885Z,4.90
2018-07-08T03:18:49.989Z,5.03
2018-07-08T03:21:18.052Z,4.80
2018-07-08T03:23:46.112Z,5.25
2018-07-08T03:26:14.168Z,4.45
2018-07-08T03:28:42.220Z,3.80
2018-07-08T03:31:10.284Z,4.28
2018-07-08T03:33:38.353Z,4.30
2018-07-08T03:36:06.608Z,4.15
2018-07-08T03:38:34.656Z,3.85
2018-07-08T03:41:02.716Z,4.00
2018-07-08T03:43:30.768Z,4.17
2018-07-08T03:45:58.840Z,4.17
2018-07-08T03:48:26.892Z,3.77
2018-07-08T03:50:54.952Z,4.45
2018-07-08T03:53:23.005Z,3.55
2018-07-08T03:55:51.057Z,4.05
2018-07-08T03:58:19.124Z,3.58
2018-07-08T04:00:47.217Z,4.15
2018-07-08T04:03:15.282Z,4.30
2018-07-08T04:05:43.328Z,3.33
2018-07-08T04:08:11.396Z,3.20
2018-07-08T04:10:39.444Z,4.22
2018-07-08T04:13:07.502Z,4.00
2018-07-08T04:15:35.536Z,4.37
2018-07-08T04:18:06.460Z,4.10
2018-07-08T04:20:34.640Z,3.92
2018-07-08T04:23:02.716Z,3.80
2018-07-08T04:25:31.125Z,4.28
2018-07-08T04:27:59.164Z,3.95
2018-07-08T04:30:27.329Z,4.00
2018-07-08T04:32:55.337Z,3.72
2018-07-08T04:35:23.372Z,4.67
2018-07-08T04:37:51.993Z,3.10
2018-07-08T04:40:20.065Z,3.45
2018-07-08T04:42:48.228Z,3.40
2018-07-08T04:45:16.267Z,3.17
2018-07-08T04:47:44.498Z,3.27
2018-07-08T04:50:12.660Z,3.52
2018-07-08T04:52:40.824Z,3.75
2018-07-08T04:55:09.052Z,3.45
2018-07-08T04:57:37.096Z,3.52
2018-07-08T05:00:05.292Z,3.45
2018-07-08T05:02:33.337Z,3.42
2018-07-08T05:05:01.412Z,3.17
2018-07-08T05:07:29.444Z,3.35
2018-07-08T05:09:58.170Z,2.70
2018-07-08T05:12:26.574Z,2.95
2018-07-08T05:14:54.614Z,3.08
2018-07-08T05:17:22.660Z,3.12
2018-07-08T05:19:50.717Z,3.67
2018-07-08T05:22:18.793Z,3.05
2018-07-08T05:24:46.813Z,2.50
2018-07-08T05:27:14.853Z,2.80
2018-07-08T05:29:42.892Z,2.22
2018-07-08T05:32:11.035Z,2.45
2018-07-08T05:34:39.044Z,2.80
2018-07-08T05:37:07.630Z,2.77
2018-07-08T05:39:35.678Z,2.90
2018-07-08T05:42:03.741Z,2.60
2018-07-08T05:44:31.792Z,2.30
2018-07-08T05:46:59.912Z,2.80
2018-07-08T05:49:28.036Z,2.20
2018-07-08T05:51:56.067Z,2.45
2018-07-08T05:54:24.100Z,2.42
2018-07-08T05:56:52.389Z,2.27
2018-07-08T05:59:20.432Z,3.33
2018-07-08T06:01:48.512Z,2.50
2018-07-08T06:04:16.805Z,2.50
2018-07-08T06:06:44.935Z,3.10
2018-07-08T06:09:12.970Z,4.15
2018-07-08T06:11:41.013Z,2.47
2018-07-08T06:14:09.069Z,2.65
2018-07-08T06:16:37.100Z,2.50
2018-07-08T06:19:05.257Z,2.35
2018-07-08T06:21:33.293Z,2.60
2018-07-08T06:24:01.345Z,2.40
2018-07-08T06:26:29.456Z,2.70
2018-07-08T06:28:57.513Z,2.20
2018-07-08T06:31:25.628Z,2.20
2018-07-08T06:33:53.669Z,2.42
2018-07-08T06:36:21.708Z,2.30
2018-07-08T06:38:49.793Z,2.70
2018-07-08T06:41:17.639Z,2.20
2018-07-08T06:43:45.690Z,2.40
2018-07-08T06:46:13.737Z,2.70
2018-07-08T06:48:41.785Z,2.30
2018-07-08T06:51:09.832Z,2.40
2018-07-08T06:53:37.875Z,2.30
2018-07-08T06:56:05.912Z,2.80
2018-07-08T06:58:33.956Z,1.80
2018-07-08T07:01:01.994Z,1.97
2018-07-08T07:03:30.037Z,2.07
2018-07-08T07:05:58.078Z,2.00
2018-07-08T07:08:26.123Z,1.90
2018-07-08T07:10:54.161Z,1.70
2018-07-08T07:13:22.211Z,1.80
2018-07-08T07:15:51.052Z,1.90
2018-07-08T07:18:19.092Z,2.13
2018-07-08T07:20:47.126Z,1.60
2018-07-08T07:23:15.174Z,1.90
2018-07-08T07:25:43.200Z,1.93
2018-07-08T07:28:11.245Z,2.07
2018-07-08T07:30:39.293Z,1.90
2018-07-08T07:33:07.336Z,2.83
2018-07-08T07:35:35.378Z,2.40
2018-07-08T07:38:03.979Z,1.83
2018-07-08T07:40:32.024Z,1.98
2018-07-08T07:43:00.080Z,1.87
2018-07-08T07:45:28.180Z,1.80
2018-07-08T07:47:56.180Z,1.40
2018-07-08T07:50:24.232Z,1.82
2018-07-08T07:52:52.280Z,1.90
2018-07-08T07:55:20.324Z,1.80
2018-07-08T07:57:48.372Z,1.85
2018-07-08T08:00:16.440Z,1.80
2018-07-08T08:02:44.488Z,2.15
2018-07-08T08:05:12.528Z,1.65
2018-07-08T08:07:40.608Z,1.62
2018-07-08T08:10:08.658Z,1.75
2018-07-08T08:12:36.720Z,2.65
2018-07-08T08:15:04.825Z,2.20
2018-07-08T08:17:32.884Z,2.00
2018-07-08T08:20:00.852Z,1.70
2018-07-08T08:22:28.986Z,2.10
2018-07-08T08:24:57.059Z,2.30
2018-07-08T08:27:25.125Z,1.65
2018-07-08T08:29:53.197Z,1.80
2018-07-08T08:32:21.252Z,2.33
2018-07-08T08:35:01.197Z,1.90
2018-07-08T08:37:30.504Z,1.70
2018-07-08T08:39:58.588Z,2.10
2018-07-08T08:42:26.648Z,1.37
2018-07-08T08:44:55.692Z,1.40
2018-07-08T08:47:24.176Z,1.22
2018-07-08T08:49:52.980Z,1.87
2018-07-08T08:52:21.174Z,1.50
2018-07-08T08:54:49.356Z,1.40
2018-07-08T08:57:17.436Z,1.40
2018-07-08T08:59:45.508Z,1.50
2018-07-08T09:02:13.564Z,1.60
2018-07-08T09:04:42.312Z,1.40
2018-07-08T09:07:12.441Z,1.50
2018-07-08T09:09:40.533Z,1.35
2018-07-08T09:12:09.124Z,1.60
2018-07-08T09:14:37.738Z,1.75
2018-07-08T09:17:06.122Z,1.70
2018-07-08T09:19:34.189Z,1.90
2018-07-08T09:22:02.341Z,1.60
2018-07-08T09:24:30.454Z,2.10
2018-07-08T09:26:58.493Z,1.55
2018-07-08T09:29:26.560Z,1.90
2018-07-08T09:31:54.626Z,1.60
2018-07-08T09:34:22.696Z,1.50
2018-07-08T09:36:50.756Z,1.25
2018-07-08T09:39:18.942Z,1.32
2018-07-08T09:41:47.357Z,1.50
2018-07-08T09:44:16.277Z,1.40
2018-07-08T09:46:45.380Z,1.47
2018-07-08T09:49:13.677Z,1.43
2018-07-08T09:51:42.069Z,1.40
2018-07-08T09:54:10.140Z,1.20
2018-07-08T09:56:38.224Z,1.05
2018-07-08T09:59:06.296Z,1.40
2018-07-08T10:01:46.882Z,1.23
2018-07-08T10:04:16.212Z,1.30
2018-07-08T10:06:45.011Z,1.17
2018-07-08T10:09:14.433Z,1.53
2018-07-08T10:11:42.574Z,1.10
2018-07-08T10:14:12.029Z,1.07
2018-07-08T10:16:40.118Z,1.15
2018-07-08T10:19:08.418Z,1.20
2018-07-08T10:21:36.465Z,1.40
2018-07-08T10:24:04.686Z,1.30
2018-07-08T10:26:32.745Z,1.23
2018-07-08T10:29:00.786Z,1.00
2018-07-08T10:31:40.256Z,1.20
2018-07-08T10:34:08.315Z,1.60
2018-07-08T10:36:36.381Z,1.30
2018-07-08T10:39:05.828Z,1.70
2018-07-08T10:41:33.866Z,1.60
2018-07-08T10:44:01.917Z,1.70
2018-07-08T10:46:29.752Z,2.00
2018-07-08T10:48:57.812Z,2.37
2018-07-08T10:51:25.894Z,1.63
2018-07-08T10:53:54.081Z,1.50
2018-07-08T10:56:22.277Z,1.67
2018-07-08T10:58:50.315Z,1.40
2018-07-08T11:01:18.360Z,1.70
2018-07-08T11:03:46.475Z,1.60
2018-07-08T11:06:14.521Z,1.60
2018-07-08T11:08:42.984Z,1.70
2018-07-08T11:11:11.060Z,1.87
2018-07-08T11:13:39.097Z,1.67
2018-07-08T11:16:07.145Z,1.60
2018-07-08T11:18:35.183Z,1.60
2018-07-08T11:21:03.236Z,1.53
2018-07-08T11:23:31.280Z,1.70
2018-07-08T11:25:59.318Z,1.60
2018-07-08T11:28:27.383Z,1.67
2018-07-08T11:30:55.409Z,1.73
2018-07-08T11:33:23.449Z,1.40
2018-07-08T11:35:51.493Z,1.83
2018-07-08T11:38:19.528Z,1.70
2018-07-08T11:40:47.581Z,1.73
2018-07-08T11:43:15.657Z,1.60
2018-07-08T11:45:43.701Z,1.50
2018-07-08T11:48:11.756Z,1.57
2018-07-08T11:50:39.796Z,1.50
2018-07-08T11:53:07.713Z,1.67
2018-07-08T11:55:35.756Z,1.63
2018-07-08T11:58:03.866Z,1.90
2018-07-08T12:00:31.683Z,1.83
2018-07-08T12:02:59.739Z,1.50
2018-07-08T12:05:27.797Z,1.60
2018-07-08T12:07:55.848Z,1.73
2018-07-08T12:10:23.888Z,1.47
2018-07-08T12:12:51.935Z,1.67
2018-07-08T12:15:19.767Z,1.80
2018-07-08T12:17:47.872Z,1.53
2018-07-08T12:20:15.983Z,1.80
2018-07-08T12:22:43.960Z,1.60
2018-07-08T12:25:12.005Z,1.83
2018-07-08T12:27:40.113Z,1.60
2018-07-08T12:30:08.080Z,1.80
2018-07-08T12:32:36.121Z,1.70
2018-07-08T12:35:04.205Z,1.40
2018-07-08T12:37:32.254Z,1.97
2018-07-08T12:40:00.300Z,1.90
2018-07-08T12:42:28.348Z,1.70
2018-07-08T12:44:56.188Z,1.57
2018-07-08T12:47:24.252Z,1.70
2018-07-08T12:49:52.297Z,1.77
2018-07-08T12:52:20.332Z,1.80
2018-07-08T12:54:48.381Z,1.73
2018-07-08T12:57:16.441Z,1.50
2018-07-08T12:59:44.480Z,1.70
2018-07-08T13:02:12.524Z,1.40
2018-07-08T13:04:40.624Z,1.50
2018-07-08T13:07:08.669Z,1.70
2018-07-08T13:09:36.708Z,1.70
2018-07-08T13:12:04.765Z,1.80
2018-07-08T13:14:32.804Z,1.53
2018-07-08T13:17:00.860Z,1.63
2018-07-08T13:19:28.888Z,1.60
2018-07-08T13:21:56.799Z,1.30
2018-07-08T13:24:24.813Z,1.50
2018-07-08T13:26:53.165Z,1.90
2018-07-08T13:29:21.238Z,1.50
2018-07-08T13:31:49.320Z,1.60
2018-07-08T13:34:17.361Z,1.40
2018-07-08T13:36:45.407Z,1.70
2018-07-08T13:39:13.624Z,1.67
2018-07-08T13:41:41.640Z,1.47
2018-07-08T13:44:09.992Z,1.30
2018-07-08T13:46:38.033Z,1.37
2018-07-08T13:49:06.076Z,1.50
2018-07-08T13:51:34.132Z,1.57
2018-07-08T13:54:02.168Z,1.70
2018-07-08T13:56:30.208Z,1.33
2018-07-08T13:58:58.248Z,1.63
2018-07-08T14:01:26.300Z,1.43
2018-07-08T14:03:54.347Z,1.60
2018-07-08T14:06:22.508Z,1.50
2018-07-08T14:08:50.552Z,1.27
2018-07-08T14:11:18.632Z,1.30
2018-07-08T14:13:46.753Z,1.40
2018-07-08T14:16:14.636Z,1.43
2018-07-08T14:18:42.692Z,1.30
2018-07-08T14:21:10.768Z,1.50
2018-07-08T14:23:38.836Z,1.80
2018-07-08T14:26:06.896Z,1.70
2018-07-08T14:28:34.989Z,1.33
2018-07-08T14:31:03.073Z,1.57
2018-07-08T14:33:31.093Z,1.53
2018-07-08T14:35:59.185Z,1.60
2018-07-08T14:38:27.246Z,1.57
2018-07-08T14:40:55.317Z,1.70
2018-07-08T14:43:23.377Z,1.87
2018-07-08T14:45:51.478Z,1.60
2018-07-08T14:48:19.508Z,1.83
2018-07-08T14:50:47.579Z,2.10
2018-07-08T14:53:15.636Z,1.70
2018-07-08T14:55:43.714Z,1.43
2018-07-08T14:58:11.765Z,2.00
2018-07-08T15:00:39.637Z,1.50
2018-07-08T15:03:07.748Z,1.50
2018-07-08T15:05:35.812Z,1.93
2018-07-08T15:08:03.876Z,1.82
2018-07-08T15:10:31.938Z,1.80
2018-07-08T15:13:00.168Z,1.40
2018-07-08T15:15:28.259Z,1.70
2018-07-08T15:17:56.280Z,2.57
2018-07-08T15:20:24.329Z,1.60
2018-07-08T15:22:52.421Z,1.62
2018-07-08T15:25:20.480Z,1.65
2018-07-08T15:27:48.558Z,1.53
2018-07-08T15:30:16.622Z,1.80
2018-07-08T15:32:44.691Z,1.50
2018-07-08T15:35:12.865Z,1.57
2018-07-08T15:37:41.172Z,2.00
2018-07-08T15:40:09.456Z,1.87
2018-07-08T15:42:37.636Z,1.67
2018-07-08T15:45:06.349Z,1.50
2018-07-08T15:47:34.506Z,1.77
2018-07-08T15:50:02.585Z,1.63
2018-07-08T15:52:31.737Z,1.82
2018-07-08T15:54:59.801Z,1.80
2018-07-08T15:57:27.873Z,1.77
2018-07-08T15:59:55.969Z,2.08
2018-07-08T16:02:24.023Z,1.62
2018-07-08T16:04:52.085Z,1.70
2018-07-08T16:07:20.157Z,1.45
2018-07-08T16:09:48.229Z,2.05
2018-07-08T16:12:16.305Z,1.40
2018-07-08T16:14:44.437Z,1.60
2018-07-08T16:17:12.501Z,2.00
2018-07-08T16:19:40.598Z,1.60
2018-07-08T16:22:08.660Z,1.40
2018-07-08T16:24:36.736Z,1.42
2018-07-08T16:27:04.899Z,1.80
2018-07-08T16:29:32.949Z,1.60
2018-07-08T16:32:01.081Z,1.70
2018-07-08T16:34:29.136Z,2.00
2018-07-08T16:36:57.201Z,1.90
2018-07-08T16:39:25.285Z,1.40
2018-07-08T16:41:53.777Z,1.77
2018-07-08T16:44:21.832Z,1.42
2018-07-08T16:46:49.906Z,1.30
2018-07-08T16:49:17.977Z,1.50
2018-07-08T16:51:46.044Z,1.37
2018-07-08T16:54:14.175Z,1.50
2018-07-08T16:56:42.345Z,1.42
2018-07-08T16:59:10.536Z,1.93
2018-07-08T17:01:38.632Z,1.77
2018-07-08T17:04:06.903Z,1.47
2018-07-08T17:06:35.049Z,1.70
2018-07-08T17:09:03.146Z,1.40
2018-07-08T17:11:31.221Z,1.40
2018-07-08T17:13:59.449Z,1.70
2018-07-08T17:16:27.616Z,1.50
2018-07-08T17:18:55.680Z,1.80
2018-07-08T17:21:23.749Z,1.70
2018-07-08T17:23:51.820Z,1.70
2018-07-08T17:26:19.894Z,1.60
2018-07-08T17:28:48.347Z,1.55
2018-07-08T17:31:16.540Z,2.00
2018-07-08T17:33:44.736Z,1.50
2018-07-08T17:36:12.801Z,1.62
2018-07-08T17:38:41.053Z,1.30
2018-07-08T17:41:09.106Z,1.47
2018-07-08T17:43:37.577Z,1.80
2018-07-08T17:46:05.725Z,1.75
2018-07-08T17:48:33.538Z,1.10
2018-07-08T17:51:01.578Z,1.62
2018-07-08T17:53:29.869Z,1.40
2018-07-08T17:55:57.925Z,1.50
2018-07-08T17:58:25.984Z,1.70
2018-07-08T18:00:54.048Z,1.60
2018-07-08T18:03:22.239Z,1.55
2018-07-08T18:05:50.231Z,1.50
2018-07-08T18:08:18.436Z,1.75
2018-07-08T18:10:46.610Z,1.60
2018-07-08T18:13:14.663Z,1.65
2018-07-08T18:15:42.691Z,1.70
2018-07-08T18:18:10.817Z,1.30
2018-07-08T18:20:38.872Z,1.27
2018-07-08T18:23:06.953Z,1.20
2018-07-08T18:25:35.126Z,1.65
2018-07-08T18:28:03.237Z,1.32
2018-07-08T18:30:32.269Z,1.52
2018-07-08T18:33:00.112Z,1.15
2018-07-08T18:35:28.148Z,1.37
2018-07-08T18:37:56.197Z,1.50
2018-07-08T18:40:24.232Z,1.50
2018-07-08T18:42:52.380Z,1.30
2018-07-08T18:45:20.412Z,1.52
2018-07-08T18:47:48.460Z,1.30
2018-07-08T18:50:16.512Z,1.80
2018-07-08T18:52:44.568Z,1.62
2018-07-08T18:55:12.601Z,1.65
2018-07-08T18:57:40.647Z,1.50
2018-07-08T19:00:08.688Z,1.60
2018-07-08T19:02:36.765Z,1.20
2018-07-08T19:05:04.896Z,1.20
2018-07-08T19:07:33.696Z,1.70
2018-07-08T19:10:01.784Z,1.67
2018-07-08T19:12:30.035Z,1.35
2018-07-08T19:14:58.200Z,1.35
2018-07-08T19:17:26.241Z,1.30
2018-07-08T19:19:54.280Z,1.45
2018-07-08T19:22:22.338Z,1.57
2018-07-08T19:24:50.384Z,1.37
2018-07-08T19:27:18.420Z,1.35
2018-07-08T19:29:46.464Z,1.62
2018-07-08T19:32:14.504Z,1.32
2018-07-08T19:34:42.817Z,1.45
2018-07-08T19:37:10.852Z,1.15
2018-07-08T19:39:38.925Z,1.60
2018-07-08T19:42:06.970Z,1.20
2018-07-08T19:44:35.011Z,1.40
2018-07-08T19:47:03.049Z,1.45
2018-07-08T19:49:31.091Z,1.70
2018-07-08T19:51:59.117Z,1.50
2018-07-08T19:54:27.160Z,1.47
2018-07-08T19:56:55.221Z,1.52
2018-07-08T19:59:23.825Z,1.40
2018-07-08T20:01:51.871Z,1.45
2018-07-08T20:04:19.913Z,1.55
2018-07-08T20:06:47.961Z,1.67
2018-07-08T20:09:16.060Z,1.72
2018-07-08T20:11:44.105Z,1.30
2018-07-08T20:14:12.152Z,1.85
2018-07-08T20:16:40.201Z,1.40
2018-07-08T20:19:08.346Z,1.70
2018-07-08T20:21:36.373Z,1.37
2018-07-08T20:24:04.411Z,1.45
2018-07-08T20:26:32.444Z,1.50
2018-07-08T20:29:00.492Z,1.60
2018-07-08T20:31:28.532Z,1.87
2018-07-08T20:33:56.577Z,1.60
2018-07-08T20:36:24.616Z,1.60
2018-07-08T20:38:52.657Z,1.35
2018-07-08T20:41:20.703Z,1.85
2018-07-08T20:43:48.745Z,2.00
2018-07-08T20:46:16.780Z,1.62
2018-07-08T20:48:44.829Z,1.52
2018-07-08T20:51:12.887Z,1.70
2018-07-08T20:53:41.311Z,2.02
2018-07-08T20:56:09.341Z,2.22
2018-07-08T20:58:37.389Z,2.33
2018-07-08T21:01:05.474Z,2.10
2018-07-08T21:03:33.521Z,2.22
2018-07-08T21:06:01.561Z,1.95
2018-07-08T21:08:29.606Z,1.75
2018-07-08T21:10:57.436Z,1.60
2018-07-08T21:13:25.885Z,1.85
2018-07-08T21:15:53.736Z,1.80
2018-07-08T21:18:21.804Z,1.72
2018-07-08T21:20:49.876Z,1.55
2018-07-08T21:23:18.143Z,1.57
2018-07-08T21:25:46.449Z,1.80
2018-07-08T21:28:14.500Z,1.40
2018-07-08T21:30:42.913Z,1.67
2018-07-08T21:33:11.205Z,1.57
2018-07-08T21:35:39.265Z,1.70
2018-07-08T21:38:07.330Z,1.60
2018-07-08T21:40:35.400Z,1.40
2018-07-08T21:43:03.460Z,2.20
2018-07-08T21:45:31.529Z,1.60
2018-07-08T21:47:59.597Z,1.52
2018-07-08T21:50:27.672Z,1.45
2018-07-08T21:52:55.708Z,1.50
2018-07-08T21:55:23.764Z,1.80
2018-07-08T21:57:51.805Z,1.92
2018-07-08T22:00:29.261Z,1.80
2018-07-08T22:02:57.312Z,1.47
2018-07-08T22:05:25.737Z,1.72
2018-07-08T22:07:59.273Z,1.50
2018-07-08T22:10:29.693Z,1.72
2018-07-08T22:12:58.184Z,2.00
2018-07-08T22:15:26.348Z,1.57
2018-07-08T22:17:54.572Z,1.80
2018-07-08T22:20:22.621Z,1.65
2018-07-08T22:22:50.661Z,2.20
2018-07-08T22:25:18.713Z,1.87
2018-07-08T22:27:46.888Z,1.92
2018-07-08T22:30:15.288Z,1.95
2018-07-08T22:32:43.469Z,1.70
2018-07-08T22:35:11.517Z,2.45
2018-07-08T22:37:39.553Z,1.90
2018-07-08T22:40:08.036Z,2.00
2018-07-08T22:42:36.217Z,1.50
2018-07-08T22:45:04.564Z,1.50
2018-07-08T22:47:32.600Z,1.85
2018-07-08T22:50:00.642Z,1.50
2018-07-08T22:52:28.559Z,2.55
2018-07-08T22:54:56.600Z,2.77
2018-07-08T22:57:24.641Z,2.70
2018-07-08T23:01:05.180Z,2.40
2018-07-08T23:03:53.824Z,2.00
2018-07-08T23:06:21.872Z,1.90
2018-07-08T23:08:50.475Z,1.90
2018-07-08T23:11:19.064Z,1.90
2018-07-08T23:13:48.005Z,1.95
2018-07-08T23:16:16.084Z,1.57
2018-07-08T23:18:44.340Z,1.70
2018-07-08T23:21:12.405Z,1.85
2018-07-08T23:23:40.468Z,2.00
2018-07-08T23:26:08.532Z,2.17
2018-07-08T23:28:37.091Z,1.50
2018-07-08T23:31:05.693Z,1.90
2018-07-08T23:33:33.754Z,1.70
2018-07-08T23:36:02.677Z,2.10
2018-07-08T23:38:31.271Z,1.62
2018-07-08T23:40:59.976Z,1.92
2018-07-08T23:43:28.052Z,1.80
2018-07-08T23:45:56.116Z,1.60
2018-07-08T23:48:24.176Z,2.00
2018-07-08T23:50:52.237Z,1.60
2018-07-08T23:53:20.301Z,2.12
2018-07-08T23:55:48.364Z,1.80
2018-07-08T23:58:16.416Z,1.98
